MMMA/MAM METAR and TAF weather

Enter ICAO airport designator
Station Type Date Time Source
MMMA METAR 2020/07/12 18:40 UTC NOAA

MMMA 121840Z 16012KT 8SM FEW200 36/24 A2993 RMK 8/005 MSGTX MMMY


Station Type Date Time Source
MMMA Decoded METAR 2020/07/12 18:40 UTC NOAA

Matamoros International , Mexico (MMMA) 25-46N 097-32W
Jul 12, 2020 - 02:40 PM EDT / 2020.07.12 1840 UTC
Wind: from the SSE (160 degrees) at 14 MPH (12 KT):0
Visibility: 8 mile(s):0
Sky conditions: mostly clear
Temperature: 96 F (36 C)
Heat index: 107.6 F (42.0 C):1
Dew Point: 75 F (24 C)
Relative Humidity: 50%
Pressure (altimeter): 29.93 in. Hg (1013 hPa)
ob: MMMA 121840Z 16012KT 8SM FEW200 36/24 A2993 RMK 8/005 MSGTX MMMY
cycle: 18

Station Type Date Time Source
MMMA TAF 2020/07/12 18:18 UTC NOAA

TAF MMMA 121710Z 1218/1318 18015G25KT P6SM SCT025 BKN250
FM130000 14012KT P6SM BKN250
FM131500 14015KT P6SM BKN020

Example: see airport list